createdAt,value
2023-05-09T00:00:57.988Z,10.25
2023-05-09T00:06:03.086Z,10.30
2023-05-09T00:11:06.626Z,10.32
2023-05-09T00:16:10.462Z,9.98
2023-05-09T00:21:15.519Z,9.75
2023-05-09T00:26:19.133Z,8.98
2023-05-09T00:31:23.820Z,9.88
2023-05-09T00:36:28.597Z,10.55
2023-05-09T00:41:31.999Z,10.23
2023-05-09T00:46:35.524Z,10.20
2023-05-09T00:51:42.190Z,13.05
2023-05-09T00:56:46.203Z,12.55
2023-05-09T01:01:49.680Z,11.50
2023-05-09T01:07:02.708Z,11.40
2023-05-09T01:12:14.784Z,12.82
2023-05-09T01:17:27.089Z,10.93
2023-05-09T01:22:36.038Z,9.70
2023-05-09T01:27:47.347Z,10.48
2023-05-09T01:32:54.974Z,10.35
2023-05-09T01:37:59.868Z,10.85
2023-05-09T01:43:08.363Z,10.20
2023-05-09T01:48:14.603Z,10.73
2023-05-09T01:53:18.699Z,10.15
2023-05-09T01:58:23.598Z,10.65
2023-05-09T02:03:28.791Z,11.55
2023-05-09T02:08:32.565Z,12.40
2023-05-09T02:13:38.328Z,12.40
2023-05-09T02:18:43.161Z,12.95
2023-05-09T02:23:46.731Z,13.20
2023-05-09T02:28:52.010Z,13.55
2023-05-09T02:33:57.889Z,12.57
2023-05-09T02:39:02.196Z,13.18
2023-05-09T02:44:06.301Z,12.73
2023-05-09T02:49:19.565Z,13.88
2023-05-09T02:54:30.622Z,14.18
2023-05-09T02:59:34.316Z,13.40
2023-05-09T03:04:41.178Z,15.48
2023-05-09T03:09:44.703Z,14.75
2023-05-09T03:14:48.705Z,14.13
2023-05-09T03:19:53.602Z,15.18
2023-05-09T03:24:57.556Z,14.73
2023-05-09T03:30:01.111Z,15.63
2023-05-09T03:35:06.613Z,14.63
2023-05-09T03:40:11.208Z,14.50
2023-05-09T03:45:25.028Z,12.93
2023-05-09T03:50:30.332Z,13.77
2023-05-09T03:55:35.413Z,14.90
2023-05-09T04:00:39.318Z,14.18
2023-05-09T04:05:50.145Z,13.48
2023-05-09T04:11:03.429Z,13.15
2023-05-09T04:16:07.285Z,13.50
2023-05-09T04:21:12.849Z,14.27
2023-05-09T04:26:18.262Z,13.68
2023-05-09T04:31:26.468Z,14.40
2023-05-09T04:36:31.851Z,14.50
2023-05-09T04:41:35.755Z,13.88
2023-05-09T04:46:39.516Z,13.75
2023-05-09T04:51:45.229Z,15.55
2023-05-09T04:56:50.603Z,14.63
2023-05-09T05:01:54.839Z,15.52
2023-05-09T05:06:59.859Z,15.20
2023-05-09T05:12:09.134Z,15.68
2023-05-09T05:17:13.804Z,16.17
2023-05-09T05:22:18.664Z,16.50
2023-05-09T05:27:23.669Z,15.30
2023-05-09T05:32:28.103Z,15.88
2023-05-09T05:37:33.275Z,16.02
2023-05-09T05:42:37.623Z,15.15
2023-05-09T05:47:41.372Z,14.93
2023-05-09T05:52:46.850Z,15.65
2023-05-09T05:57:52.327Z,15.20
2023-05-09T06:02:56.569Z,13.82
2023-05-09T06:08:11.450Z,15.27
2023-05-09T06:13:14.990Z,16.40
2023-05-09T06:18:23.802Z,16.02
2023-05-09T06:23:28.592Z,16.92
2023-05-09T06:28:32.088Z,15.20
2023-05-09T06:33:35.471Z,17.38
2023-05-09T06:38:40.849Z,16.30
2023-05-09T06:43:44.302Z,16.00
2023-05-09T06:48:48.142Z,17.42
2023-05-09T06:53:53.263Z,16.33
2023-05-09T06:58:56.804Z,17.25
2023-05-09T07:04:00.305Z,16.80
2023-05-09T07:09:05.412Z,15.98
2023-05-09T07:14:08.771Z,15.95
2023-05-09T07:19:12.539Z,16.75
2023-05-09T07:24:17.428Z,17.00
2023-05-09T07:29:20.872Z,16.52
2023-05-09T07:34:25.383Z,15.23
2023-05-09T07:39:30.288Z,14.27
2023-05-09T07:44:33.635Z,14.93
2023-05-09T07:49:37.236Z,13.80
2023-05-09T07:54:42.071Z,15.35
2023-05-09T07:59:45.533Z,14.95
2023-05-09T08:04:49.346Z,13.50
2023-05-09T08:09:54.143Z,15.05
2023-05-09T08:14:57.551Z,13.02
2023-05-09T08:20:01.141Z,13.15
2023-05-09T08:25:06.661Z,13.20
2023-05-09T08:30:11.018Z,13.57
2023-05-09T08:35:14.802Z,13.43
2023-05-09T08:40:20.121Z,12.40
2023-05-09T08:45:27.596Z,11.77
2023-05-09T08:50:31.618Z,10.82
2023-05-09T08:55:36.555Z,12.00
2023-05-09T09:00:42.381Z,9.77
2023-05-09T09:05:47.849Z,8.73
2023-05-09T09:10:53.167Z,9.52
2023-05-09T09:16:00.233Z,9.32
2023-05-09T09:21:08.134Z,9.90
2023-05-09T09:26:13.343Z,9.15
2023-05-09T09:31:24.347Z,9.38
2023-05-09T09:36:29.072Z,8.82
2023-05-09T09:41:35.203Z,9.27
2023-05-09T09:46:46.715Z,10.02
2023-05-09T09:51:54.877Z,8.48
2023-05-09T09:56:59.785Z,9.35
2023-05-09T10:02:07.646Z,7.93
2023-05-09T10:07:14.819Z,9.38
2023-05-09T10:12:23.494Z,8.13
2023-05-09T10:17:27.750Z,8.15
2023-05-09T10:22:33.404Z,7.82
2023-05-09T10:27:41.234Z,6.72
2023-05-09T10:32:50.603Z,6.90
2023-05-09T10:37:57.498Z,5.97
2023-05-09T10:43:02.893Z,6.30
2023-05-09T10:48:09.002Z,5.55
2023-05-09T10:53:14.511Z,6.05
2023-05-09T10:58:27.506Z,5.88
2023-05-09T11:03:54.596Z,6.35
2023-05-09T11:08:58.105Z,6.10
2023-05-09T11:14:03.212Z,5.80
2023-05-09T11:19:07.059Z,6.93
2023-05-09T11:24:17.963Z,7.35
2023-05-09T11:29:28.109Z,6.60
2023-05-09T11:34:31.592Z,7.22
2023-05-09T11:39:35.100Z,6.70
2023-05-09T11:44:41.141Z,6.57
2023-05-09T11:49:44.702Z,6.45
2023-05-09T11:54:48.643Z,6.93
2023-05-09T11:59:54.221Z,6.35
2023-05-09T12:04:57.800Z,6.15
2023-05-09T12:10:02.840Z,6.55
2023-05-09T12:15:10.903Z,5.25
2023-05-09T12:20:14.902Z,5.25
2023-05-09T12:25:18.503Z,4.43
2023-05-09T12:30:23.737Z,4.35
2023-05-09T12:35:27.184Z,3.90
2023-05-09T12:40:30.607Z,3.70
2023-05-09T12:45:35.484Z,3.08
2023-05-09T12:50:38.909Z,3.05
2023-05-09T12:55:42.387Z,2.70
2023-05-09T13:00:47.503Z,2.63
2023-05-09T13:05:58.896Z,2.30
2023-05-09T13:11:14.804Z,3.72
2023-05-09T13:16:20.095Z,4.45
2023-05-09T13:21:23.479Z,3.70
2023-05-09T13:26:28.356Z,2.30
2023-05-09T13:31:33.095Z,1.95
2023-05-09T13:36:36.515Z,2.78
2023-05-09T13:41:39.919Z,2.28
2023-05-09T13:46:44.791Z,2.53
2023-05-09T13:51:48.665Z,1.95
2023-05-09T13:56:52.882Z,1.48
2023-05-09T14:02:00.018Z,1.30
2023-05-09T14:07:04.893Z,1.30
2023-05-09T14:12:10.115Z,1.38
2023-05-09T14:17:15.060Z,1.83
2023-05-09T14:22:18.492Z,1.35
2023-05-09T14:27:21.945Z,1.00
2023-05-09T14:32:27.205Z,1.33
2023-05-09T14:37:30.614Z,1.27
2023-05-09T14:42:34.076Z,1.33
2023-05-09T14:47:38.978Z,1.35
2023-05-09T14:52:44.081Z,1.13
2023-05-09T14:57:47.623Z,1.17
2023-05-09T15:02:52.400Z,1.20
2023-05-09T15:07:55.870Z,1.35
2023-05-09T15:12:59.287Z,1.33
2023-05-09T15:18:04.122Z,1.15
2023-05-09T15:23:08.542Z,1.25
2023-05-09T15:28:12.173Z,1.33
2023-05-09T15:33:17.655Z,1.35
2023-05-09T15:38:21.154Z,1.30
2023-05-09T15:43:24.651Z,1.08
2023-05-09T15:48:31.826Z,1.02
2023-05-09T15:53:35.368Z,1.13
2023-05-09T15:58:39.111Z,1.20
2023-05-09T16:03:44.117Z,1.13
2023-05-09T16:08:47.688Z,0.93
2023-05-09T16:13:51.208Z,1.10
2023-05-09T16:18:56.130Z,1.40
2023-05-09T16:24:00.191Z,1.00
2023-05-09T16:29:03.698Z,0.90
2023-05-09T16:34:08.597Z,1.17
2023-05-09T16:39:11.986Z,1.30
2023-05-09T16:44:15.541Z,0.93
2023-05-09T16:49:20.399Z,0.88
2023-05-09T16:54:23.720Z,0.80
2023-05-09T16:59:27.249Z,0.75
2023-05-09T17:04:32.093Z,0.80
2023-05-09T17:09:43.660Z,0.57
2023-05-09T17:14:48.069Z,0.70
2023-05-09T17:19:55.870Z,0.88
2023-05-09T17:24:59.518Z,0.80
2023-05-09T17:30:04.091Z,1.10
2023-05-09T17:35:10.218Z,1.70
2023-05-09T17:40:15.709Z,1.73
2023-05-09T17:45:20.678Z,1.60
2023-05-09T17:50:25.672Z,3.67
2023-05-09T17:55:29.160Z,2.60
2023-05-09T18:00:32.635Z,2.40
2023-05-09T18:05:37.452Z,1.80
2023-05-09T18:10:41.478Z,1.60
2023-05-09T18:15:45.301Z,1.50
2023-05-09T18:20:51.458Z,1.50
2023-05-09T18:25:56.044Z,1.13
2023-05-09T18:31:01.400Z,1.27
2023-05-09T18:36:07.104Z,1.10
2023-05-09T18:41:11.983Z,0.90
2023-05-09T18:46:18.112Z,1.50
2023-05-09T18:51:23.148Z,1.30
2023-05-09T18:56:26.593Z,2.03
2023-05-09T19:01:30.262Z,1.65
2023-05-09T19:06:35.183Z,1.33
2023-05-09T19:11:38.676Z,1.45
2023-05-09T19:16:42.371Z,1.30
2023-05-09T19:21:49.041Z,1.48
2023-05-09T19:26:53.476Z,1.40
2023-05-09T19:31:58.267Z,1.60
2023-05-09T19:37:03.107Z,1.33
2023-05-09T19:42:06.539Z,1.55
2023-05-09T19:47:10.141Z,1.48
2023-05-09T19:52:15.018Z,1.60
2023-05-09T19:57:18.726Z,1.80
2023-05-09T20:02:22.285Z,1.88
2023-05-09T20:07:27.221Z,1.50
2023-05-09T20:12:30.761Z,1.67
2023-05-09T20:17:34.281Z,1.42
2023-05-09T20:22:40.788Z,1.50
2023-05-09T20:27:57.475Z,1.65
2023-05-09T20:33:01.296Z,1.65
2023-05-09T20:38:06.280Z,1.75
2023-05-09T20:43:09.811Z,1.58
2023-05-09T20:48:13.738Z,2.20
2023-05-09T20:53:22.421Z,1.48
2023-05-09T20:58:26.153Z,1.55
2023-05-09T21:03:29.787Z,1.83
2023-05-09T21:08:34.708Z,1.27
2023-05-09T21:13:38.103Z,1.52
2023-05-09T21:19:07.155Z,1.35
2023-05-09T21:24:12.011Z,0.90
2023-05-09T21:29:15.589Z,1.08
2023-05-09T21:34:21.217Z,0.93
2023-05-09T21:40:29.184Z,0.95
2023-05-09T21:45:46.544Z,0.80
2023-05-09T21:50:49.974Z,0.80
2023-05-09T21:55:54.801Z,0.90
2023-05-09T22:00:58.433Z,0.95
2023-05-09T22:06:01.804Z,0.68
2023-05-09T22:11:07.738Z,0.88
2023-05-09T22:16:11.728Z,1.00
2023-05-09T22:21:15.218Z,0.80
2023-05-09T22:26:20.175Z,0.60
2023-05-09T22:31:23.776Z,0.70
2023-05-09T22:36:27.404Z,0.70
2023-05-09T22:41:32.334Z,0.70
2023-05-09T22:46:35.838Z,0.50
2023-05-09T22:51:39.334Z,0.77
2023-05-09T22:56:44.396Z,0.60
2023-05-09T23:01:47.860Z,0.80
2023-05-09T23:06:51.267Z,0.63
2023-05-09T23:11:56.102Z,0.57
2023-05-09T23:16:59.559Z,1.02
2023-05-09T23:22:03.037Z,0.70
2023-05-09T23:27:07.870Z,0.63
2023-05-09T23:32:11.250Z,0.70
2023-05-09T23:37:14.682Z,0.70
2023-05-09T23:42:19.508Z,0.70
2023-05-09T23:47:22.987Z,0.70
2023-05-09T23:52:26.564Z,0.43
2023-05-09T23:57:33.497Z,0.30
